Time;durP1;ratioP1;P1;durP2;ratioP2;P2;SDS_P1;SDS_P2;PMS_P1;PMS_P2;Temp;Humidity;BMP_temperature;BMP_pressure;BME280_temperature;BME280_humidity;BME280_pressure;Samples;Min_cycle;Max_cycle;Signal;HPM_P1;HPM_P2
2023/12/20 04:02:42;;;;;;;23.90;4.55;;;7.30;99.90;;;;;;4956313;28;20062;-73
2023/12/20 04:05:09;;;;;;;24.95;4.28;;;7.30;99.90;;;;;;4939872;29;20134;-74
2023/12/20 04:07:38;;;;;;;33.45;3.80;;;7.20;99.90;;;;;;4940128;29;20439;-75
2023/12/20 04:10:04;;;;;;;25.40;4.65;;;7.30;99.90;;;;;;4957318;28;20452;-76
2023/12/20 04:12:31;;;;;;;30.48;3.95;;;7.30;99.90;;;;;;4939800;29;20041;-76
2023/12/20 04:14:57;;;;;;;20.70;4.13;;;7.30;99.90;;;;;;4939845;29;20043;-77
2023/12/20 04:17:22;;;;;;;25.90;3.72;;;7.40;99.90;;;;;;4939958;29;20054;-75
2023/12/20 04:19:49;;;;;;;20.48;4.22;;;7.40;99.90;;;;;;4939744;29;20047;-76
2023/12/20 04:22:15;;;;;;;21.02;3.58;;;7.40;99.90;;;;;;4939544;29;20094;-77
2023/12/20 04:24:42;;;;;;;35.22;4.18;;;7.40;99.90;;;;;;4939604;29;20047;-77
2023/12/20 04:27:08;;;;;;;23.95;4.20;;;7.40;99.90;;;;;;4939873;29;20089;-76
2023/12/20 04:29:34;;;;;;;23.45;3.30;;;7.40;99.90;;;;;;4923777;29;20047;-74
2023/12/20 04:32:00;;;;;;;23.23;4.13;;;7.40;99.90;;;;;;4956756;28;20058;-77
2023/12/20 04:34:28;;;;;;;27.45;3.45;;;7.40;99.90;;;;;;4939307;29;20047;-77
2023/12/20 04:36:54;;;;;;;29.90;4.18;;;7.40;99.90;;;;;;4956644;29;20036;-75
2023/12/20 04:39:19;;;;;;;22.98;3.70;;;7.40;99.90;;;;;;4939686;29;20395;-76
2023/12/20 04:41:47;;;;;;;16.00;3.17;;;7.40;99.90;;;;;;4956730;29;20072;-76
2023/12/20 04:44:13;;;;;;;36.42;5.55;;;7.40;99.90;;;;;;4939205;29;20047;-77
2023/12/20 04:46:39;;;;;;;19.42;3.53;;;7.40;99.90;;;;;;4939588;29;20119;-75
2023/12/20 04:49:04;;;;;;;22.63;3.60;;;7.50;99.90;;;;;;4939156;29;20039;-78
2023/12/20 04:51:32;;;;;;;21.33;3.58;;;7.50;99.90;;;;;;4956473;28;20039;-77
2023/12/20 04:53:58;;;;;;;23.27;3.67;;;7.50;99.90;;;;;;4939482;29;20403;-77
2023/12/20 04:56:23;;;;;;;15.00;2.92;;;7.50;99.90;;;;;;4923293;29;20043;-75
2023/12/20 04:58:49;;;;;;;25.25;3.85;;;7.50;99.90;;;;;;4939109;29;20098;-75
2023/12/20 05:01:15;;;;;;;20.02;3.65;;;7.50;99.90;;;;;;4935788;29;20138;-75
2023/12/20 05:03:40;;;;;;;28.45;4.22;;;7.50;99.90;;;;;;4937204;29;20035;-77
2023/12/20 05:06:06;;;;;;;28.98;5.13;;;7.50;99.90;;;;;;4937257;29;20376;-75
2023/12/20 05:08:32;;;;;;;26.08;4.00;;;7.60;99.90;;;;;;4936202;29;20036;-78
2023/12/20 05:10:57;;;;;;;26.67;3.53;;;7.60;99.90;;;;;;4919926;29;20118;-76
2023/12/20 05:13:23;;;;;;;27.45;2.80;;;7.60;99.90;;;;;;4936910;29;20048;-75
2023/12/20 05:15:48;;;;;;;20.70;4.05;;;7.60;99.90;;;;;;4935710;29;20047;-77
2023/12/20 05:18:14;;;;;;;26.92;3.63;;;7.60;99.90;;;;;;4937196;29;20079;-74
2023/12/20 05:20:40;;;;;;;25.13;4.07;;;7.70;99.90;;;;;;4935355;29;20565;-76
2023/12/20 05:23:06;;;;;;;27.73;5.18;;;7.70;99.90;;;;;;4935394;29;20051;-75
2023/12/20 05:25:32;;;;;;;17.35;3.40;;;7.70;99.90;;;;;;4935950;29;20138;-77
2023/12/20 05:27:57;;;;;;;24.98;3.42;;;7.70;99.90;;;;;;4935760;29;20039;-77
2023/12/20 05:30:23;;;;;;;29.02;3.65;;;7.80;99.90;;;;;;4935410;29;20488;-76
2023/12/20 05:32:49;;;;;;;24.92;4.00;;;7.80;99.90;;;;;;4936588;29;20044;-74
2023/12/20 05:35:15;;;;;;;27.98;4.05;;;7.70;99.90;;;;;;4935479;29;20039;-77
2023/12/20 05:37:41;;;;;;;15.90;3.63;;;7.70;99.90;;;;;;4936898;29;20043;-75
2023/12/20 05:40:10;;;;;;;20.70;3.65;;;7.70;99.90;;;;;;4935537;29;20551;-74
2023/12/20 05:42:36;;;;;;;20.85;4.00;;;7.70;99.90;;;;;;4919478;29;20051;-75
2023/12/20 05:45:02;;;;;;;20.27;3.97;;;7.80;99.90;;;;;;4936848;29;20045;-76
2023/12/20 05:47:28;;;;;;;19.75;4.15;;;7.70;99.90;;;;;;4935172;29;20139;-76
2023/12/20 05:49:53;;;;;;;17.85;2.75;;;7.70;99.90;;;;;;4935262;29;20047;-77
2023/12/20 05:52:19;;;;;;;23.02;3.08;;;7.70;99.90;;;;;;4919493;29;20400;-77
2023/12/20 05:54:45;;;;;;;22.67;3.65;;;7.70;99.90;;;;;;4935112;29;20051;-74
2023/12/20 05:57:10;;;;;;;26.23;3.67;;;7.80;99.90;;;;;;4936606;29;20127;-76
2023/12/20 05:59:36;;;;;;;23.67;3.97;;;7.80;99.90;;;;;;4935349;29;20384;-74
2023/12/20 06:02:04;;;;;;;24.77;3.47;;;7.80;99.90;;;;;;4950415;28;20054;-77
2023/12/20 06:04:30;;;;;;;18.83;3.05;;;7.80;99.90;;;;;;4959450;28;20043;-75
2023/12/20 06:06:55;;;;;;;20.23;3.78;;;7.90;99.90;;;;;;4942284;29;20055;-78
2023/12/20 06:09:21;;;;;;;25.17;3.83;;;7.80;99.90;;;;;;4942146;29;20043;-77
2023/12/20 06:11:47;;;;;;;20.52;3.47;;;7.90;99.90;;;;;;4942222;29;20391;-77
2023/12/20 06:14:12;;;;;;;20.35;3.22;;;7.90;99.90;;;;;;4942338;29;20479;-75
2023/12/20 06:16:38;;;;;;;22.95;2.75;;;7.90;99.90;;;;;;4959460;29;20035;-77
2023/12/20 06:19:04;;;;;;;25.48;4.22;;;7.90;99.90;;;;;;4942246;29;20099;-75
2023/12/20 06:21:29;;;;;;;15.23;2.60;;;7.90;99.90;;;;;;4958969;28;20573;-76
2023/12/20 06:23:55;;;;;;;29.20;4.10;;;7.90;99.90;;;;;;4959148;28;20047;-77
2023/12/20 06:26:21;;;;;;;21.17;3.67;;;8.00;99.90;;;;;;4959144;29;20043;-81
2023/12/20 06:28:47;;;;;;;24.42;4.68;;;8.00;99.90;;;;;;4941640;29;20419;-80
2023/12/20 06:31:13;;;;;;;19.23;3.60;;;8.00;99.90;;;;;;4959123;28;20039;-76
2023/12/20 06:33:41;;;;;;;16.50;2.83;;;8.10;99.90;;;;;;4941533;29;20043;-80
2023/12/20 06:36:06;;;;;;;21.80;2.90;;;8.10;99.90;;;;;;4959037;29;20548;-76
2023/12/20 06:38:32;;;;;;;22.95;3.03;;;8.00;99.90;;;;;;4941951;29;20122;-77
2023/12/20 06:40:58;;;;;;;17.63;3.45;;;8.10;99.90;;;;;;4941554;29;20487;-76
2023/12/20 06:43:24;;;;;;;23.95;3.35;;;8.00;99.90;;;;;;4958649;28;20039;-76
2023/12/20 06:45:50;;;;;;;30.30;4.40;;;8.00;99.90;;;;;;4941744;29;20050;-77
2023/12/20 06:48:16;;;;;;;26.75;3.88;;;8.00;99.90;;;;;;4941737;29;20098;-76
2023/12/20 06:50:42;;;;;;;21.77;3.55;;;8.00;99.90;;;;;;4941723;29;20491;-76
2023/12/20 06:53:07;;;;;;;22.58;4.20;;;8.00;99.90;;;;;;4959330;28;20043;-76
2023/12/20 06:55:37;;;;;;;17.33;3.75;;;8.00;99.90;;;;;;4959059;28;20502;-75
2023/12/20 06:58:03;;;;;;;17.83;3.47;;;8.00;99.90;;;;;;4941376;29;20126;-75
2023/12/20 07:00:30;;;;;;;23.85;3.88;;;8.00;99.90;;;;;;4941476;28;20054;-77
2023/12/20 07:02:55;;;;;;;32.22;4.45;;;8.10;99.90;;;;;;4941616;29;20576;-76
2023/12/20 07:05:21;;;;;;;26.95;4.35;;;8.10;99.90;;;;;;4958767;28;20047;-78
2023/12/20 07:07:47;;;;;;;21.35;4.03;;;8.10;99.90;;;;;;4959133;29;20039;-79
2023/12/20 07:10:13;;;;;;;20.10;4.13;;;8.20;99.90;;;;;;4941366;29;20398;-76
2023/12/20 07:12:39;;;;;;;26.00;4.05;;;8.20;99.90;;;;;;4941727;29;20051;-76
2023/12/20 07:15:08;;;;;;;24.08;4.10;;;8.20;99.90;;;;;;4939951;29;20496;-77
2023/12/20 07:17:34;;;;;;;24.55;3.70;;;8.20;99.90;;;;;;4941310;29;20047;-77
2023/12/20 07:20:03;;;;;;;22.05;4.00;;;8.20;99.90;;;;;;4958468;29;20098;-75
2023/12/20 07:22:33;;;;;;;17.83;3.60;;;8.20;99.90;;;;;;4940805;29;20102;-79
2023/12/20 07:24:59;;;;;;;27.42;4.18;;;8.30;99.90;;;;;;4958020;28;20035;-78
2023/12/20 07:27:25;;;;;;;22.95;3.45;;;8.30;99.90;;;;;;4941275;29;20050;-75
2023/12/20 07:29:51;;;;;;;24.80;4.65;;;8.20;99.90;;;;;;4941136;29;20550;-78
2023/12/20 07:32:17;;;;;;;18.98;3.60;;;8.30;99.90;;;;;;4940991;29;20043;-78
2023/12/20 07:34:42;;;;;;;29.33;4.40;;;8.30;99.90;;;;;;4941141;29;20054;-75
2023/12/20 07:37:10;;;;;;;18.42;3.38;;;8.30;99.90;;;;;;4940826;29;20044;-74
2023/12/20 07:39:36;;;;;;;24.30;3.80;;;8.30;99.90;;;;;;4940636;29;20089;-77
2023/12/20 07:42:01;;;;;;;19.45;3.50;;;8.30;99.90;;;;;;4940873;29;20461;-77
2023/12/20 07:44:27;;;;;;;26.17;4.90;;;8.30;99.90;;;;;;4958282;29;20048;-79
2023/12/20 07:46:52;;;;;;;27.85;5.03;;;8.40;99.90;;;;;;4941470;29;20387;-74
2023/12/20 07:49:19;;;;;;;25.70;3.95;;;8.40;99.90;;;;;;4941040;29;20376;-75
2023/12/20 07:51:45;;;;;;;15.35;2.47;;;8.40;99.90;;;;;;4957848;29;20039;-78
2023/12/20 07:54:11;;;;;;;20.08;3.63;;;8.40;99.90;;;;;;4940611;29;20043;-77
2023/12/20 07:56:36;;;;;;;24.20;4.68;;;8.40;99.90;;;;;;4957944;29;20126;-77
2023/12/20 07:59:02;;;;;;;23.02;4.13;;;8.40;99.90;;;;;;4940232;29;20065;-77
2023/12/20 08:01:28;;;;;;;19.13;4.03;;;8.40;99.90;;;;;;4936908;29;20051;-78
2023/12/20 08:03:54;;;;;;;28.85;4.82;;;8.40;99.90;;;;;;4937071;29;20067;-80
2023/12/20 08:06:21;;;;;;;27.90;4.15;;;8.40;99.90;;;;;;4938604;29;20043;-78
2023/12/20 08:08:46;;;;;;;30.98;4.78;;;8.40;99.90;;;;;;4937242;29;20043;-75
2023/12/20 08:11:12;;;;;;;22.25;3.30;;;8.40;99.90;;;;;;4937367;29;20040;-80
2023/12/20 08:13:38;;;;;;;32.85;4.00;;;8.40;99.90;;;;;;4937704;29;20051;-76
2023/12/20 08:16:04;;;;;;;25.13;5.15;;;8.50;99.90;;;;;;4940242;29;20480;-76
2023/12/20 08:18:30;;;;;;;27.40;4.50;;;8.50;99.90;;;;;;4938801;29;20058;-76
2023/12/20 08:20:55;;;;;;;25.55;4.10;;;8.50;99.90;;;;;;4938354;29;20051;-75
2023/12/20 08:23:21;;;;;;;33.95;4.20;;;8.50;99.90;;;;;;4938326;29;20075;-80
2023/12/20 08:25:48;;;;;;;22.55;4.70;;;8.50;99.90;;;;;;4937290;29;20118;-75
2023/12/20 08:28:13;;;;;;;18.73;3.25;;;8.50;99.90;;;;;;4938130;29;20502;-76
2023/12/20 08:30:39;;;;;;;22.33;3.75;;;8.50;99.90;;;;;;4937505;29;20071;-79
2023/12/20 08:33:07;;;;;;;18.70;3.28;;;8.50;99.90;;;;;;4936370;29;20067;-75
2023/12/20 08:35:33;;;;;;;18.05;3.45;;;8.50;99.90;;;;;;4937696;29;20122;-79
2023/12/20 08:37:59;;;;;;;13.68;3.10;;;8.50;99.90;;;;;;4937777;29;20072;-77
2023/12/20 08:40:24;;;;;;;22.17;3.20;;;8.50;99.90;;;;;;4937577;29;20042;-78
2023/12/20 08:42:50;;;;;;;22.67;3.55;;;8.40;99.90;;;;;;4936142;29;20448;-77
2023/12/20 08:45:15;;;;;;;32.20;5.47;;;8.50;99.90;;;;;;4936146;29;20075;-75
2023/12/20 08:47:42;;;;;;;24.33;4.65;;;8.50;99.90;;;;;;4935961;29;20049;-80
2023/12/20 08:50:07;;;;;;;18.45;3.22;;;8.50;99.90;;;;;;4937079;29;20491;-78
2023/12/20 08:52:33;;;;;;;21.73;3.70;;;8.50;99.90;;;;;;4935831;29;20040;-80
2023/12/20 08:54:59;;;;;;;29.95;4.93;;;8.50;99.90;;;;;;4935912;29;20404;-76
2023/12/20 08:57:25;;;;;;;19.90;4.05;;;8.70;99.90;;;;;;4936830;29;20047;-79
2023/12/20 08:59:51;;;;;;;27.77;4.05;;;8.90;99.90;;;;;;4935888;29;20051;-75
2023/12/20 09:02:17;;;;;;;19.08;3.40;;;8.80;99.90;;;;;;4935797;29;20103;-77
2023/12/20 09:04:43;;;;;;;27.67;3.70;;;8.70;99.90;;;;;;4935855;29;20040;-76
2023/12/20 09:07:31;;;;;;;26.58;4.38;;;8.60;99.90;;;;;;4937480;29;20047;-76
2023/12/20 09:09:57;;;;;;;16.05;3.40;;;8.60;99.90;;;;;;4937212;29;20403;-79
2023/12/20 09:12:23;;;;;;;21.23;3.90;;;8.50;99.90;;;;;;4937222;29;20039;-78
2023/12/20 09:14:50;;;;;;;17.63;3.70;;;8.50;99.90;;;;;;4936079;29;20496;-79
2023/12/20 09:17:17;;;;;;;15.95;2.90;;;8.50;99.90;;;;;;4935982;29;20063;-77
2023/12/20 09:19:46;;;;;;;18.25;3.83;;;8.70;99.90;;;;;;4937236;29;20087;-79
2023/12/20 09:22:12;;;;;;;21.98;5.03;;;8.80;99.90;;;;;;4937391;29;20046;-79
2023/12/20 09:24:38;;;;;;;25.15;5.13;;;8.90;99.90;;;;;;4937303;29;20036;-76
2023/12/20 09:27:05;;;;;;;17.02;3.25;;;9.00;99.90;;;;;;4937285;29;20369;-78
2023/12/20 09:29:31;;;;;;;25.40;4.47;;;9.00;99.90;;;;;;4920400;29;20187;-77
2023/12/20 09:31:57;;;;;;;21.83;3.63;;;8.90;99.90;;;;;;4935602;29;20551;-77
2023/12/20 09:34:24;;;;;;;21.90;3.75;;;8.80;99.90;;;;;;4936844;29;20423;-78
2023/12/20 09:36:49;;;;;;;28.05;3.42;;;8.80;99.90;;;;;;4935048;29;20050;-79
2023/12/20 09:39:23;;;;;;;12.73;2.80;;;8.80;99.90;;;;;;4935442;29;20085;-76
2023/12/20 09:42:01;;;;;;;7.90;2.08;;;8.60;99.90;;;;;;4935239;29;20551;-81
2023/12/20 09:44:27;;;;;;;10.77;1.63;;;8.40;99.90;;;;;;4935309;29;20500;-81
2023/12/20 09:46:55;;;;;;;7.90;1.92;;;8.20;99.90;;;;;;4937163;29;20039;-77
2023/12/20 09:49:21;;;;;;;12.85;1.60;;;8.10;99.90;;;;;;4935140;29;20420;-80
2023/12/20 09:51:50;;;;;;;10.57;1.38;;;8.00;99.90;;;;;;4936344;29;20119;-77
2023/12/20 09:54:17;;;;;;;7.38;1.20;;;7.90;99.90;;;;;;4935400;29;20048;-76
2023/12/20 09:56:43;;;;;;;11.60;1.63;;;7.90;99.90;;;;;;4935132;29;20047;-78
2023/12/20 09:59:09;;;;;;;15.68;1.77;;;7.80;99.90;;;;;;4935190;29;20083;-78
2023/12/20 10:01:36;;;;;;;11.98;1.20;;;7.70;99.90;;;;;;4934831;29;20078;-75
2023/12/20 10:04:08;;;;;;;8.40;1.30;;;7.60;99.90;;;;;;4936706;29;20040;-77
2023/12/20 10:06:44;;;;;;;9.50;1.27;;;7.50;99.90;;;;;;4935139;29;20043;-79
2023/12/20 10:09:10;;;;;;;9.82;1.83;;;7.40;99.90;;;;;;4919380;29;20044;-76
2023/12/20 10:11:38;;;;;;;12.52;1.40;;;7.40;99.90;;;;;;4936584;29;20038;-77
2023/12/20 10:14:04;;;;;;;9.90;1.10;;;7.30;99.90;;;;;;4935594;29;20082;-77
2023/12/20 10:16:31;;;;;;;8.50;1.65;;;7.20;99.90;;;;;;4936782;29;20048;-77
2023/12/20 10:18:56;;;;;;;10.07;1.73;;;7.20;99.90;;;;;;4935458;29;20115;-78
2023/12/20 10:21:24;;;;;;;8.52;1.20;;;7.10;99.90;;;;;;4935001;29;20043;-79
2023/12/20 10:23:50;;;;;;;11.68;1.75;;;7.10;99.90;;;;;;4936553;29;20036;-76
2023/12/20 10:26:26;;;;;;;13.15;1.30;;;7.10;99.90;;;;;;4935585;29;20058;-78
2023/12/20 10:28:59;;;;;;;5.90;1.30;;;7.10;99.90;;;;;;4935184;29;20043;-78
2023/12/20 10:31:29;;;;;;;13.88;2.38;;;7.10;99.90;;;;;;4935084;29;20044;-78
2023/12/20 10:33:59;;;;;;;13.18;2.13;;;7.20;99.90;;;;;;4936722;29;20071;-76
2023/12/20 10:36:26;;;;;;;5.38;1.38;;;7.20;99.90;;;;;;4923008;29;20048;-73
2023/12/20 10:38:53;;;;;;;13.00;1.90;;;7.20;99.90;;;;;;4944004;29;20040;-74
2023/12/20 10:41:27;;;;;;;13.25;1.77;;;7.20;99.90;;;;;;4937732;29;20075;-76
2023/12/20 10:43:56;;;;;;;11.43;1.50;;;7.20;99.90;;;;;;4935233;29;20036;-76
2023/12/20 10:46:22;;;;;;;14.90;1.80;;;7.20;99.90;;;;;;4936668;29;20044;-77
2023/12/20 10:48:50;;;;;;;12.45;1.90;;;7.30;99.90;;;;;;4937524;29;20038;-78
2023/12/20 10:51:18;;;;;;;8.30;1.30;;;7.30;99.90;;;;;;4938193;29;20043;-76
2023/12/20 10:53:46;;;;;;;15.85;2.28;;;7.30;99.90;;;;;;4938567;29;20048;-75
2023/12/20 10:56:16;;;;;;;6.40;1.40;;;7.30;99.90;;;;;;4939887;29;20032;-79
2023/12/20 10:58:45;;;;;;;5.63;1.50;;;7.20;99.90;;;;;;4939659;29;20079;-76
2023/12/20 11:01:14;;;;;;;13.40;1.40;;;7.20;99.90;;;;;;4938244;29;20443;-79
2023/12/20 11:03:44;;;;;;;8.40;2.03;;;7.20;99.90;;;;;;4939249;29;20035;-77
2023/12/20 11:06:35;;;;;;;6.35;1.50;;;7.30;99.90;;;;;;4938079;29;20055;-78
2023/12/20 11:09:13;;;;;;;13.23;1.60;;;7.30;99.90;;;;;;4937753;29;20090;-79
2023/12/20 11:12:05;;;;;;;8.38;1.25;;;7.30;99.90;;;;;;4937741;29;20043;-76
2023/12/20 11:14:46;;;;;;;10.80;1.67;;;7.40;99.90;;;;;;4938112;29;20377;-76
2023/12/20 11:17:14;;;;;;;9.82;1.30;;;7.40;99.90;;;;;;4938100;29;20160;-79
2023/12/20 11:19:58;;;;;;;15.90;1.63;;;7.40;99.90;;;;;;4937473;29;20063;-76
2023/12/20 11:22:31;;;;;;;6.60;1.45;;;7.40;99.90;;;;;;4937563;29;20044;-77
2023/12/20 11:25:10;;;;;;;17.85;2.88;;;7.40;99.90;;;;;;4937561;29;20040;-76
2023/12/20 11:27:42;;;;;;;16.15;2.58;;;7.40;99.90;;;;;;4937343;29;20048;-78
2023/12/20 11:30:09;;;;;;;7.63;2.20;;;7.40;99.90;;;;;;4937393;29;20040;-78
2023/12/20 11:32:36;;;;;;;12.35;2.80;;;7.40;99.90;;;;;;4937207;29;20079;-77
2023/12/20 11:35:08;;;;;;;7.68;2.13;;;7.40;99.90;;;;;;4937806;29;20444;-77
2023/12/20 11:37:42;;;;;;;12.13;1.80;;;7.40;99.90;;;;;;4937559;29;20051;-78
2023/12/20 11:40:11;;;;;;;11.48;1.75;;;7.40;99.90;;;;;;4937455;29;20047;-77
2023/12/20 11:42:41;;;;;;;12.05;1.65;;;7.50;99.90;;;;;;4936974;29;20122;-75
2023/12/20 11:45:15;;;;;;;13.10;2.17;;;7.50;99.90;;;;;;4937116;29;20102;-80
2023/12/20 11:47:45;;;;;;;12.65;1.95;;;7.50;99.90;;;;;;4937035;29;20095;-79
2023/12/20 11:50:11;;;;;;;15.60;2.65;;;7.50;99.90;;;;;;4921210;29;20392;-77
2023/12/20 11:52:37;;;;;;;7.03;1.70;;;7.40;99.90;;;;;;4936862;29;20044;-79
2023/12/20 11:55:04;;;;;;;12.88;2.20;;;7.50;99.90;;;;;;4938444;29;20055;-80
2023/12/20 11:57:30;;;;;;;8.90;1.40;;;7.50;99.90;;;;;;4937195;29;20376;-79
2023/12/20 11:59:56;;;;;;;9.85;1.73;;;7.50;99.90;;;;;;4936398;29;20044;-79
2023/12/20 12:02:23;;;;;;;11.45;2.08;;;7.50;99.90;;;;;;4936480;29;20058;-77
2023/12/20 12:04:50;;;;;;;12.77;2.08;;;7.60;99.90;;;;;;4936660;29;20047;-78
2023/12/20 12:07:16;;;;;;;13.18;2.17;;;7.50;99.90;;;;;;4936800;29;20055;-76
2023/12/20 12:09:43;;;;;;;21.73;2.20;;;7.60;99.90;;;;;;4936456;29;20036;-76
2023/12/20 12:12:09;;;;;;;11.57;2.72;;;7.50;99.90;;;;;;4937852;29;20039;-74
2023/12/20 12:14:36;;;;;;;8.63;1.85;;;7.50;99.90;;;;;;4936371;29;20085;-79
2023/12/20 12:17:03;;;;;;;8.65;1.50;;;7.50;99.90;;;;;;4936524;29;20107;-79
2023/12/20 12:19:35;;;;;;;11.48;1.88;;;7.40;99.90;;;;;;4936600;29;20048;-77
2023/12/20 12:22:09;;;;;;;11.82;2.17;;;7.40;99.90;;;;;;4936517;29;20044;-78
2023/12/20 12:24:34;;;;;;;15.98;1.83;;;7.40;99.90;;;;;;4936731;29;20122;-78
2023/12/20 12:27:00;;;;;;;8.70;1.30;;;7.30;99.90;;;;;;4936677;29;20131;-75
2023/12/20 12:29:27;;;;;;;9.55;1.70;;;7.30;99.90;;;;;;4937737;29;20122;-77
2023/12/20 12:31:52;;;;;;;13.68;1.55;;;7.30;99.90;;;;;;4937684;29;20048;-77
2023/12/20 12:34:18;;;;;;;11.07;1.60;;;7.30;99.90;;;;;;4920485;29;20074;-79
2023/12/20 12:36:45;;;;;;;15.82;2.47;;;7.20;99.90;;;;;;4937670;29;20043;-77
2023/12/20 12:39:17;;;;;;;14.63;2.42;;;7.10;99.90;;;;;;4937677;29;20048;-75
2023/12/20 12:41:43;;;;;;;16.83;2.35;;;7.00;99.90;;;;;;4936086;29;20047;-78
2023/12/20 12:44:09;;;;;;;12.32;2.53;;;7.00;99.90;;;;;;4919851;29;20563;-76
2023/12/20 12:46:35;;;;;;;8.05;1.73;;;7.00;99.90;;;;;;4935907;29;20138;-75
2023/12/20 12:49:01;;;;;;;14.00;1.67;;;7.00;99.90;;;;;;4935985;29;20054;-78
2023/12/20 12:51:26;;;;;;;10.02;2.10;;;6.90;99.90;;;;;;4935708;29;20044;-78
2023/12/20 12:53:53;;;;;;;11.13;1.85;;;6.90;99.90;;;;;;4935784;29;20058;-77
2023/12/20 12:56:18;;;;;;;15.60;3.75;;;6.80;99.90;;;;;;4937007;29;20047;-78
2023/12/20 12:58:45;;;;;;;11.45;2.53;;;6.80;99.90;;;;;;4935564;29;20051;-79
2023/12/20 13:01:10;;;;;;;13.95;2.08;;;6.80;99.90;;;;;;4935328;29;20081;-80
2023/12/20 13:03:37;;;;;;;15.57;4.20;;;6.80;99.90;;;;;;4935623;29;20046;-79
2023/12/20 13:06:04;;;;;;;15.13;3.13;;;6.80;99.90;;;;;;4936605;29;20485;-77
2023/12/20 13:08:30;;;;;;;10.27;2.65;;;6.80;99.90;;;;;;4936652;29;20380;-79
2023/12/20 13:10:58;;;;;;;7.45;1.50;;;6.70;99.90;;;;;;4935264;29;20054;-76
2023/12/20 13:13:23;;;;;;;11.93;2.22;;;6.70;99.90;;;;;;4935611;29;20151;-76
2023/12/20 13:15:52;;;;;;;10.80;1.95;;;6.70;99.90;;;;;;4936380;29;20488;-77
2023/12/20 13:18:18;;;;;;;10.63;1.75;;;6.70;99.90;;;;;;4935238;29;20086;-79
2023/12/20 13:20:44;;;;;;;14.20;1.55;;;6.70;99.90;;;;;;4919301;29;20043;-76
2023/12/20 13:23:10;;;;;;;9.82;1.77;;;6.70;99.90;;;;;;4935345;29;20044;-78
2023/12/20 13:25:36;;;;;;;12.02;1.67;;;6.70;99.90;;;;;;4935158;29;20048;-75
2023/12/20 13:28:03;;;;;;;11.05;2.03;;;6.70;99.90;;;;;;4936296;29;20042;-78
2023/12/20 13:30:28;;;;;;;14.75;2.58;;;6.70;99.90;;;;;;4934993;29;20048;-78
2023/12/20 13:32:54;;;;;;;11.93;2.13;;;6.70;99.90;;;;;;4936530;29;20044;-77
2023/12/20 13:35:20;;;;;;;13.95;1.92;;;6.70;99.90;;;;;;4919213;29;20044;-76
2023/12/20 13:37:46;;;;;;;9.32;1.48;;;6.70;99.90;;;;;;4934938;29;20056;-75
2023/12/20 13:40:12;;;;;;;13.82;1.80;;;6.70;99.90;;;;;;4934858;29;20062;-78
2023/12/20 13:42:39;;;;;;;8.80;1.85;;;6.70;99.90;;;;;;4934808;29;20044;-77
2023/12/20 13:45:05;;;;;;;10.88;2.42;;;6.70;99.90;;;;;;4936163;29;20123;-78
2023/12/20 13:47:32;;;;;;;13.57;3.33;;;6.70;99.90;;;;;;4935026;29;20134;-77
2023/12/20 13:49:57;;;;;;;9.05;3.05;;;6.80;99.90;;;;;;4934731;29;20512;-76
2023/12/20 13:52:23;;;;;;;12.90;3.63;;;6.80;99.90;;;;;;4934686;29;20055;-78
2023/12/20 13:54:49;;;;;;;11.13;2.42;;;6.90;99.90;;;;;;4934593;29;20471;-76
2023/12/20 13:57:14;;;;;;;10.18;3.28;;;6.80;99.90;;;;;;4934848;29;20036;-76
2023/12/20 13:59:40;;;;;;;5.50;2.45;;;6.80;99.90;;;;;;4934591;29;20526;-73
2023/12/20 14:02:06;;;;;;;9.38;2.40;;;6.80;99.90;;;;;;4934477;29;20102;-78
2023/12/20 14:04:31;;;;;;;8.25;1.77;;;6.90;99.90;;;;;;4934521;29;20032;-76
2023/12/20 14:06:57;;;;;;;10.98;1.77;;;6.80;99.90;;;;;;4934948;29;20054;-77
2023/12/20 14:09:23;;;;;;;10.45;1.70;;;6.90;99.90;;;;;;4934571;29;20519;-80
2023/12/20 14:11:49;;;;;;;9.50;1.65;;;6.90;99.90;;;;;;4935911;29;20123;-76
2023/12/20 14:14:14;;;;;;;10.20;2.00;;;6.80;99.90;;;;;;4935813;29;20381;-76
2023/12/20 14:16:41;;;;;;;8.10;1.40;;;6.90;99.90;;;;;;4918690;29;20054;-77
2023/12/20 14:19:09;;;;;;;7.32;1.60;;;6.90;99.90;;;;;;4935730;29;20522;-75
2023/12/20 14:21:35;;;;;;;13.52;2.40;;;6.80;99.90;;;;;;4934573;29;20047;-75
2023/12/20 14:24:00;;;;;;;11.40;2.97;;;6.90;99.90;;;;;;4920027;29;20067;-75
2023/12/20 14:26:27;;;;;;;6.95;1.50;;;6.80;99.90;;;;;;4938357;29;20039;-79
2023/12/20 14:28:53;;;;;;;11.68;2.20;;;6.80;99.90;;;;;;4938320;29;20055;-74
2023/12/20 14:31:19;;;;;;;12.60;3.17;;;6.90;99.90;;;;;;4938467;29;20400;-76
2023/12/20 14:33:46;;;;;;;12.10;2.47;;;6.90;99.90;;;;;;4938677;29;20499;-78
2023/12/20 14:36:11;;;;;;;12.48;2.13;;;6.90;99.90;;;;;;4938465;29;20452;-76
2023/12/20 14:38:37;;;;;;;10.18;2.20;;;6.90;99.90;;;;;;4939342;29;20079;-74
2023/12/20 14:41:05;;;;;;;13.32;1.98;;;6.90;99.90;;;;;;4939674;29;20126;-76
2023/12/20 14:43:31;;;;;;;12.23;2.35;;;6.90;99.90;;;;;;4939162;29;20126;-76
2023/12/20 14:45:57;;;;;;;21.00;3.78;;;7.00;99.90;;;;;;4938100;29;20126;-76
2023/12/20 14:48:22;;;;;;;10.40;2.35;;;7.00;99.90;;;;;;4938086;29;20039;-76
2023/12/20 14:50:48;;;;;;;17.38;3.15;;;7.10;99.90;;;;;;4939112;29;20141;-76
2023/12/20 14:53:16;;;;;;;16.55;2.30;;;7.10;99.90;;;;;;4937912;29;20142;-78
2023/12/20 14:55:42;;;;;;;22.17;3.65;;;7.20;99.90;;;;;;4939147;29;20107;-76
2023/12/20 14:58:08;;;;;;;12.93;2.75;;;7.30;99.90;;;;;;4939387;29;20035;-78
2023/12/20 15:00:33;;;;;;;19.15;3.08;;;7.40;99.90;;;;;;4940071;28;20044;-76
2023/12/20 15:02:59;;;;;;;19.50;3.63;;;7.40;99.90;;;;;;4941002;29;20039;-76
2023/12/20 15:05:26;;;;;;;25.80;3.58;;;7.50;99.90;;;;;;4958277;29;20028;-78
2023/12/20 15:07:52;;;;;;;22.73;2.95;;;7.60;99.90;;;;;;4940841;29;20578;-77
2023/12/20 15:10:18;;;;;;;18.67;3.53;;;7.70;99.90;;;;;;4940678;29;20118;-74
2023/12/20 15:12:45;;;;;;;23.58;4.15;;;7.70;99.90;;;;;;4941036;29;20434;-75
2023/12/20 15:15:11;;;;;;;22.13;3.15;;;7.80;99.90;;;;;;4940672;29;20047;-79
2023/12/20 15:17:37;;;;;;;25.92;4.35;;;7.80;99.90;;;;;;4940977;29;20043;-75
2023/12/20 15:20:08;;;;;;;22.52;3.17;;;7.90;99.90;;;;;;4957784;28;20074;-78
2023/12/20 15:22:35;;;;;;;20.67;3.67;;;7.90;99.90;;;;;;4940460;29;20130;-78
2023/12/20 15:25:01;;;;;;;24.23;4.22;;;7.90;99.90;;;;;;4940424;29;20034;-76
2023/12/20 15:27:27;;;;;;;27.63;4.57;;;8.00;99.90;;;;;;4940594;29;20142;-75
2023/12/20 15:29:52;;;;;;;21.77;3.58;;;7.90;99.90;;;;;;4940664;29;20526;-76
2023/12/20 15:32:22;;;;;;;16.85;4.15;;;7.90;99.90;;;;;;4957529;28;20039;-76
2023/12/20 15:34:48;;;;;;;22.33;3.10;;;8.00;99.90;;;;;;4939692;29;20043;-78
2023/12/20 15:37:14;;;;;;;26.17;4.47;;;8.00;99.90;;;;;;4940070;29;20044;-79
2023/12/20 15:39:41;;;;;;;19.63;3.58;;;8.10;99.90;;;;;;4940420;29;20565;-76
2023/12/20 15:42:07;;;;;;;20.60;3.13;;;8.10;99.90;;;;;;4962259;29;20035;-74
2023/12/20 15:44:32;;;;;;;24.63;4.47;;;8.10;99.90;;;;;;4949483;29;20046;-75
2023/12/20 15:46:58;;;;;;;16.73;3.65;;;8.10;99.90;;;;;;4961050;28;20114;-76
2023/12/20 15:49:23;;;;;;;26.42;3.75;;;8.00;99.90;;;;;;4958514;29;20031;-76
2023/12/20 15:51:49;;;;;;;15.88;2.90;;;8.00;99.90;;;;;;4960465;28;20051;-74
2023/12/20 15:54:15;;;;;;;18.67;3.00;;;8.00;99.90;;;;;;4959332;28;20054;-76
2023/12/20 15:56:41;;;;;;;19.58;3.03;;;8.00;99.90;;;;;;4959129;28;20049;-79
2023/12/20 15:59:07;;;;;;;19.15;2.83;;;8.00;99.90;;;;;;4976838;28;20398;-77
2023/12/20 16:01:35;;;;;;;18.80;3.50;;;8.00;99.90;;;;;;4976492;28;20049;-78
2023/12/20 16:04:01;;;;;;;28.95;4.10;;;8.00;99.90;;;;;;4976631;28;20368;-78
2023/12/20 16:06:27;;;;;;;19.85;3.58;;;7.90;99.90;;;;;;4976664;28;20045;-77
2023/12/20 16:08:53;;;;;;;22.63;3.67;;;7.90;99.90;;;;;;4958973;28;20403;-80
2023/12/20 16:11:19;;;;;;;35.60;5.07;;;7.90;99.90;;;;;;4976034;28;20117;-80
2023/12/20 16:13:45;;;;;;;28.23;4.53;;;7.90;99.90;;;;;;4958935;28;20133;-77
2023/12/20 16:16:11;;;;;;;21.10;5.65;;;7.90;99.90;;;;;;4959696;28;20047;-81
2023/12/20 16:18:40;;;;;;;30.25;6.78;;;7.90;99.90;;;;;;4959128;28;20144;-84
2023/12/20 16:21:08;;;;;;;31.73;7.55;;;7.90;99.90;;;;;;4976395;28;20094;-76
2023/12/20 16:23:37;;;;;;;21.60;4.05;;;7.90;99.90;;;;;;4958490;28;20081;-79
2023/12/20 16:26:03;;;;;;;22.33;3.50;;;7.90;99.90;;;;;;4975791;28;20078;-79
2023/12/20 16:28:28;;;;;;;26.33;4.70;;;7.90;99.90;;;;;;4958589;28;20511;-79
2023/12/20 16:30:55;;;;;;;17.95;3.28;;;7.90;99.90;;;;;;4958442;28;20061;-78
2023/12/20 16:33:21;;;;;;;21.38;3.72;;;7.90;99.90;;;;;;4976091;28;20391;-78
2023/12/20 16:35:47;;;;;;;22.48;3.50;;;8.00;99.90;;;;;;4958390;28;20045;-78
2023/12/20 16:38:12;;;;;;;18.00;2.78;;;7.90;99.90;;;;;;4958491;28;20050;-79
2023/12/20 16:40:38;;;;;;;22.60;3.00;;;8.00;99.90;;;;;;4975748;28;20062;-78
2023/12/20 16:43:04;;;;;;;25.13;3.63;;;8.00;99.90;;;;;;4958196;28;20474;-78
2023/12/20 16:45:29;;;;;;;23.48;3.85;;;8.00;99.90;;;;;;4975692;28;20132;-79
2023/12/20 16:47:55;;;;;;;16.65;2.97;;;8.00;99.90;;;;;;4975520;28;20427;-77